Meteo Giornale » Osservazioni meteo Macedonia » Ohrid

ore: 19:50 - Osservazioni Meteo Ohrid
Lat. 41° 7' N Lon. 20° 48' E Alt. 760 metri s.l.m.

poco_nuvoloso

27 °C

Poco Nuvoloso

Temp. 24 Ore

17 °C

33 °C

Est

9.3 Km/h

Dew point 18 °C

Umidità 57 %

Visibilità  10 Km

Il sole sorge alle ore 06:03

Il sole tramonta alle ore 19:10

Data e Ora Cielo e Fenomeni T °C DP °C Um. % Pres. hPa Vis. km Vento km/h
Oggi h: 19:50 poco_nuvoloso Poco Nuvoloso 27 18 57 1018 10 E 9.3
Oggi h: 19:20 nuvoloso Nuvoloso 27 19 61 1018 10 N 5.5
Oggi h: 18:50 nuvoloso Nuvoloso 27 19 61 1018 10 E/NE 7.4
Oggi h: 18:20 nuvoloso Nuvoloso 29 19 54 1017 10 S 14.8
Oggi h: 17:50 nuvoloso Nuvoloso 29 19 54 1017 10 S 14.8
Oggi h: 17:20 nuvoloso Nuvoloso 30 19 51 1017 10 E/SE 16.7
Oggi h: 16:50 nuvoloso Nuvoloso 31 17 43 1017 10 SE 11.1
Oggi h: 16:20 nuvoloso Nuvoloso 33 17 38 1017 10 S 9.3
Oggi h: 15:50 nuvoloso Nuvoloso 32 17 40 1017 10 N 5.5
Oggi h: 15:20 nuvoloso Nuvoloso 31 18 45 1018 10 S/SO 11.1
Oggi h: 14:50 nuvoloso Nuvoloso 31 17 43 1018 10 S 11.1
Oggi h: 14:20 nuvoloso Nuvoloso 30 19 51 1018 10 S/SE 11.1
Oggi h: 13:50 nuvoloso Nuvoloso 29 20 58 1018 10 S/SE 13
Oggi h: 13:20 poco_nuvoloso Poco Nuvoloso 29 18 51 1018 10 S/SE 13
Oggi h: 12:50 poco_nuvoloso Poco Nuvoloso 29 18 51 1018 10 S/SE 11.1
Oggi h: 12:20 poco_nuvoloso Poco Nuvoloso 28 19 58 1019 10 S/SE 11.1
Oggi h: 11:50 poco_nuvoloso Poco Nuvoloso 27 21 69 1019 10 S/SE 11.1
Oggi h: 11:20 poco_nuvoloso Poco Nuvoloso 27 20 65 1019 10 S/SE 11.1
Oggi h: 10:50 sereno Sereno 26 20 69 1019 10 S/SE 11.1
Oggi h: 10:20 sereno Sereno 26 20 69 1019 10 S 9.3
Oggi h: 09:50 sereno Sereno 26 19 65 1019 10 S 7.4
Oggi h: 09:20 sereno Sereno 25 19 69 1019 10 N 3.7
Oggi h: 08:50 sereno Sereno 24 18 69 1019 10 N 1.8
Oggi h: 08:20 sereno Sereno 22 18 78 1019 10 N 1.8
Oggi h: 07:50 sereno Sereno 20 17 82 1019 10 N 3.7
Oggi h: 07:20 sereno Sereno 18 16 88 1019 10 N 5.5
Oggi h: 06:50 sereno Sereno 17 16 93 1019 10 N 5.5
Ieri h: 20:50 poco_nuvoloso Poco Nuvoloso 24 16 60 1017 10 N/NO 7.4